CYSB

Sudbury Airport

Sudbury, , Canada
METAR CYSB 230700Z 13007KT 15SM OVC086 M05/M12 A3048 RMK AC8 SLP346
Observed Flight Rules
Feb-23 @ 07:00 UTC (an hour ago) Visual Flight Rules
Wind Visibility Clouds
130° at 7 knots 15 miles
  • Overcast at 8,600' AGL
Temperatures Readings
Current -5°C / 23°F
Dewpoint -12°C / 10°F
Humidity 58%
Altimeter 30.48" Hg
Pressure 1034.6 hPa
Elevation 348
METAR CYSB 230700Z 13007KT 15SM OVC086 M05/M12 A3048 RMK AC8 SLP346
Observed Flight Rules
Feb-23 @ 07:00 UTC
(an hour ago)
VFR
Wind Visibility
130° at 7 knots 15 miles
Clouds
  • Overcast at 8,600' AGL
Temperature Dewpoint
-5°C / 23°F -12°C / 10°F
Humidity Altimeter Pressure
58% 30.48" Hg 1034.6 hPa